createdAt,value
2023-05-24T00:02:14.956Z,101351.16
2023-05-24T00:06:17.894Z,101357.97
2023-05-24T00:10:22.211Z,101359.66
2023-05-24T00:14:25.215Z,101351.16
2023-05-24T00:18:28.176Z,101357.97
2023-05-24T00:22:31.076Z,101354.91
2023-05-24T00:26:35.512Z,101353.72
2023-05-24T00:30:38.648Z,101351.50
2023-05-24T00:34:41.635Z,101353.03
2023-05-24T00:38:44.589Z,101350.50
2023-05-24T00:42:48.894Z,101349.09
2023-05-24T00:46:52.872Z,101349.06
2023-05-24T00:50:56.015Z,101350.28
2023-05-24T00:54:59.448Z,101350.59
2023-05-24T00:59:03.812Z,101360.44
2023-05-24T01:03:07.481Z,101358.84
2023-05-24T01:07:17.079Z,101363.88
2023-05-24T01:11:27.548Z,101364.91
2023-05-24T01:15:35.052Z,101354.03
2023-05-24T01:19:43.589Z,101367.94
2023-05-24T01:23:52.650Z,101358.09
2023-05-24T01:27:57.389Z,101362.06
2023-05-24T01:32:00.610Z,101365.59
2023-05-24T01:36:03.541Z,101365.44
2023-05-24T01:40:07.708Z,101363.63
2023-05-24T01:44:16.830Z,101359.09
2023-05-24T01:48:25.836Z,101353.50
2023-05-24T01:52:30.186Z,101358.50
2023-05-24T01:56:33.233Z,101361.22
2023-05-24T02:00:37.775Z,101354.88
2023-05-24T02:04:40.973Z,101350.75
2023-05-24T02:08:43.890Z,101339.69
2023-05-24T02:12:46.870Z,101343.81
2023-05-24T02:16:51.333Z,101347.34
2023-05-24T02:20:55.526Z,101338.41
2023-05-24T02:24:58.814Z,101337.97
2023-05-24T02:29:01.940Z,101330.84
2023-05-24T02:33:06.793Z,101332.78
2023-05-24T02:37:10.024Z,101331.38
2023-05-24T02:41:17.933Z,101338.84
2023-05-24T02:45:21.005Z,101343.19
2023-05-24T02:49:25.297Z,101331.00
2023-05-24T02:53:28.442Z,101322.63
2023-05-24T02:57:34.190Z,101330.31
2023-05-24T03:01:37.370Z,101338.69
2023-05-24T03:05:41.696Z,101337.00
2023-05-24T03:09:45.038Z,101330.19
2023-05-24T03:13:47.961Z,101340.41
2023-05-24T03:17:52.030Z,101326.31
2023-05-24T03:21:56.356Z,101323.28
2023-05-24T03:26:00.342Z,101327.53
2023-05-24T03:30:03.381Z,101333.91
2023-05-24T03:34:11.044Z,101329.72
2023-05-24T03:38:16.638Z,101333.72
2023-05-24T03:42:22.451Z,101330.50
2023-05-24T03:46:25.412Z,101349.41
2023-05-24T03:50:28.469Z,101344.59
2023-05-24T03:54:33.630Z,101349.19
2023-05-24T03:58:37.516Z,101352.28
2023-05-24T04:02:42.518Z,101359.63
2023-05-24T04:06:45.804Z,101358.78
2023-05-24T04:10:50.943Z,101351.88
2023-05-24T04:14:54.014Z,101360.47
2023-05-24T04:18:57.792Z,101365.25
2023-05-24T04:23:01.134Z,101363.63
2023-05-24T04:27:05.754Z,101365.75
2023-05-24T04:31:09.636Z,101364.16
2023-05-24T04:35:12.772Z,101365.22
2023-05-24T04:39:15.906Z,101359.47
2023-05-24T04:43:20.256Z,101351.47
2023-05-24T04:47:23.302Z,101353.81
2023-05-24T04:51:26.436Z,101361.69
2023-05-24T04:55:29.585Z,101365.91
2023-05-24T04:59:34.108Z,101371.38
2023-05-24T05:03:37.296Z,101364.59
2023-05-24T05:07:40.504Z,101376.72
2023-05-24T05:11:44.256Z,101366.75
2023-05-24T05:15:48.546Z,101378.34
2023-05-24T05:19:51.835Z,101376.00
2023-05-24T05:23:54.880Z,101389.59
2023-05-24T05:27:57.898Z,101388.59
2023-05-24T05:32:02.391Z,101392.00
2023-05-24T05:36:05.580Z,101402.00
2023-05-24T05:40:09.020Z,101398.25
2023-05-24T05:44:12.389Z,101391.19
2023-05-24T05:48:16.829Z,101381.09
2023-05-24T05:52:19.948Z,101396.28
2023-05-24T05:56:23.012Z,101386.25
2023-05-24T06:00:26.238Z,101377.09
2023-05-24T06:04:30.795Z,101371.00
2023-05-24T06:08:35.288Z,101373.41
2023-05-24T06:12:40.901Z,101367.78
2023-05-24T06:16:46.226Z,101375.06
2023-05-24T06:20:50.758Z,101357.56
2023-05-24T06:24:53.767Z,101358.00
2023-05-24T06:28:56.889Z,101356.16
2023-05-24T06:33:01.063Z,101363.88
2023-05-24T06:37:06.107Z,101371.66
2023-05-24T06:41:09.474Z,101360.59
2023-05-24T06:45:12.705Z,101354.06
2023-05-24T06:49:15.792Z,101350.25
2023-05-24T06:53:20.460Z,101358.72
2023-05-24T06:57:24.611Z,101361.78
2023-05-24T07:01:27.780Z,101359.53
2023-05-24T07:05:31.750Z,101365.75
2023-05-24T07:09:36.450Z,101372.38
2023-05-24T07:13:39.941Z,101367.88
2023-05-24T07:17:42.988Z,101376.97
2023-05-24T07:21:46.074Z,101374.09
2023-05-24T07:25:50.580Z,101360.34
2023-05-24T07:29:54.294Z,101366.28
2023-05-24T07:33:57.362Z,101366.56
2023-05-24T07:38:00.660Z,101367.41
2023-05-24T07:42:05.252Z,101374.00
2023-05-24T07:46:08.692Z,101376.03
2023-05-24T07:50:12.216Z,101372.97
2023-05-24T07:54:15.355Z,101381.97
2023-05-24T07:58:20.077Z,101382.72
2023-05-24T08:02:26.733Z,101382.56
2023-05-24T08:06:29.788Z,101374.69
2023-05-24T08:10:32.861Z,101371.91
2023-05-24T08:14:37.380Z,101374.81
2023-05-24T08:18:40.463Z,101373.09
2023-05-24T08:22:43.960Z,101372.88
2023-05-24T08:26:47.039Z,101373.66
2023-05-24T08:30:51.948Z,101368.22
2023-05-24T08:35:03.545Z,101372.22
2023-05-24T08:39:13.982Z,101366.19
2023-05-24T08:43:17.531Z,101370.00
2023-05-24T08:47:23.151Z,101372.47
2023-05-24T08:51:27.508Z,101369.84
2023-05-24T08:55:33.043Z,101360.97
2023-05-24T08:59:37.701Z,101361.28
2023-05-24T09:03:43.442Z,101358.72
2023-05-24T09:07:47.090Z,101365.19
2023-05-24T09:11:52.194Z,101365.84
2023-05-24T09:15:55.344Z,101359.28
2023-05-24T09:20:00.539Z,101353.38
2023-05-24T09:24:03.813Z,101361.25
2023-05-24T09:28:07.502Z,101352.59
2023-05-24T09:32:10.472Z,101359.13
2023-05-24T09:36:18.246Z,101345.66
2023-05-24T09:40:21.820Z,101347.53
2023-05-24T09:44:25.780Z,101343.69
2023-05-24T09:48:29.001Z,101354.84
2023-05-24T09:52:36.042Z,101346.06
2023-05-24T09:56:40.920Z,101340.16
2023-05-24T10:00:44.278Z,101330.03
2023-05-24T10:04:47.924Z,101336.75
2023-05-24T10:08:54.505Z,101339.91
2023-05-24T10:12:57.824Z,101340.28
2023-05-24T10:17:01.247Z,101337.50
2023-05-24T10:21:08.086Z,101338.28
2023-05-24T10:25:17.483Z,101343.81
2023-05-24T10:29:25.712Z,101338.34
2023-05-24T10:33:29.551Z,101346.19
2023-05-24T10:37:33.124Z,101337.47
2023-05-24T10:41:42.409Z,101345.50
2023-05-24T10:45:49.841Z,101340.03
2023-05-24T10:49:53.754Z,101330.47
2023-05-24T10:53:58.498Z,101330.50
2023-05-24T10:58:06.982Z,101337.41
2023-05-24T11:02:13.867Z,101329.88
2023-05-24T11:06:18.646Z,101331.91
2023-05-24T11:10:31.129Z,101332.25
2023-05-24T11:14:36.205Z,101329.53
2023-05-24T11:18:40.181Z,101317.31
2023-05-24T11:22:43.284Z,101323.44
2023-05-24T11:26:47.077Z,101320.41
2023-05-24T11:30:52.513Z,101305.84
2023-05-24T11:34:56.310Z,101301.38
2023-05-24T11:38:59.514Z,101310.09
2023-05-24T11:43:02.623Z,101293.16
2023-05-24T11:47:08.244Z,101303.59
2023-05-24T11:51:11.728Z,101307.09
2023-05-24T11:55:17.301Z,101298.53
2023-05-24T11:59:24.357Z,101296.75
2023-05-24T12:03:29.076Z,101296.81
2023-05-24T12:07:33.320Z,101292.03
2023-05-24T12:11:36.626Z,101293.84
2023-05-24T12:15:39.694Z,101287.00
2023-05-24T12:19:44.407Z,101293.03
2023-05-24T12:23:48.831Z,101287.34
2023-05-24T12:27:57.989Z,101284.31
2023-05-24T12:32:01.188Z,101278.63
2023-05-24T12:36:06.596Z,101269.00
2023-05-24T12:40:16.449Z,101279.91
2023-05-24T12:44:22.828Z,101279.41
2023-05-24T12:48:25.960Z,101281.44
2023-05-24T12:52:30.518Z,101275.84
2023-05-24T12:56:33.748Z,101276.38
2023-05-24T13:00:41.427Z,101277.53
2023-05-24T13:04:44.791Z,101284.09
2023-05-24T13:08:49.399Z,101274.75
2023-05-24T13:12:52.703Z,101284.56
2023-05-24T13:16:55.822Z,101283.78
2023-05-24T13:21:00.639Z,101285.56
2023-05-24T13:25:05.475Z,101287.19
2023-05-24T13:29:32.198Z,101289.06
2023-05-24T13:33:33.874Z,101285.50
2023-05-24T13:37:37.051Z,101285.81
2023-05-24T13:41:41.672Z,101278.75
2023-05-24T13:45:45.632Z,101283.25
2023-05-24T13:49:49.043Z,101280.28
2023-05-24T13:53:52.226Z,101276.88
2023-05-24T13:57:57.074Z,101276.06
2023-05-24T14:02:00.313Z,101287.03
2023-05-24T14:06:03.570Z,101277.19
2023-05-24T14:10:07.160Z,101289.41
2023-05-24T14:18:17.550Z,101281.22
2023-05-24T14:22:22.844Z,101287.53
2023-05-24T14:26:27.339Z,101281.50
2023-05-24T14:30:32.388Z,101277.31
2023-05-24T14:34:35.336Z,101285.56
2023-05-24T14:38:40.792Z,101272.38
2023-05-24T14:42:43.767Z,101277.91
2023-05-24T14:46:49.018Z,101270.25
2023-05-24T14:50:51.953Z,101264.72
2023-05-24T14:54:54.987Z,101267.16
2023-05-24T14:58:58.708Z,101271.03
2023-05-24T15:03:03.300Z,101273.84
2023-05-24T15:07:06.776Z,101276.19
2023-05-24T15:11:09.780Z,101276.47
2023-05-24T15:15:12.972Z,101287.44
2023-05-24T15:19:17.293Z,101286.66
2023-05-24T15:23:21.383Z,101281.34
2023-05-24T15:27:26.921Z,101270.72
2023-05-24T15:31:30.173Z,101261.97
2023-05-24T15:35:34.447Z,101259.88
2023-05-24T15:39:37.635Z,101261.34
2023-05-24T15:43:40.692Z,101262.50
2023-05-24T15:47:46.163Z,101252.53
2023-05-24T15:55:57.514Z,101254.63
2023-05-24T16:00:01.339Z,101251.06
2023-05-24T16:04:04.474Z,101251.13
2023-05-24T16:08:08.985Z,101256.16
2023-05-24T16:12:12.185Z,101253.38
2023-05-24T16:16:15.468Z,101246.38
2023-05-24T16:20:18.474Z,101246.53
2023-05-24T16:24:23.185Z,101245.84
2023-05-24T16:28:26.141Z,101241.72
2023-05-24T16:32:29.115Z,101231.75
2023-05-24T16:36:33.037Z,101228.53
2023-05-24T16:40:37.343Z,101221.94
2023-05-24T16:44:40.303Z,101209.56
2023-05-24T16:48:43.435Z,101214.31
2023-05-24T16:52:47.288Z,101221.28
2023-05-24T16:56:54.613Z,101223.06
2023-05-24T17:00:58.786Z,101226.53
2023-05-24T17:05:02.192Z,101230.38
2023-05-24T17:09:05.414Z,101233.72
2023-05-24T17:13:09.796Z,101224.34
2023-05-24T17:17:12.920Z,101229.06
2023-05-24T17:21:16.406Z,101233.81
2023-05-24T17:25:19.708Z,101230.78
2023-05-24T17:29:24.219Z,101234.41
2023-05-24T17:33:28.405Z,101231.34
2023-05-24T17:37:31.777Z,101245.09
2023-05-24T17:41:36.824Z,101242.78
2023-05-24T17:45:41.529Z,101238.03
2023-05-24T17:49:44.786Z,101238.72
2023-05-24T17:53:47.993Z,101242.09
2023-05-24T17:57:51.139Z,101239.56
2023-05-24T18:01:55.950Z,101235.34
2023-05-24T18:05:59.543Z,101236.50
2023-05-24T18:10:02.624Z,101236.13
2023-05-24T18:14:05.787Z,101246.63
2023-05-24T18:18:10.341Z,101235.84
2023-05-24T18:22:13.440Z,101243.50
2023-05-24T18:26:16.528Z,101234.16
2023-05-24T18:30:19.573Z,101238.91
2023-05-24T18:34:24.046Z,101234.97
2023-05-24T18:38:27.215Z,101235.44
2023-05-24T18:42:30.246Z,101237.56
2023-05-24T18:46:33.823Z,101242.38
2023-05-24T18:50:38.497Z,101240.34
2023-05-24T18:54:41.542Z,101239.41
2023-05-24T18:58:46.291Z,101252.88
2023-05-24T19:02:51.280Z,101252.09
2023-05-24T19:06:55.853Z,101253.41
2023-05-24T19:10:59.358Z,101265.66
2023-05-24T19:15:05.912Z,101272.88
2023-05-24T19:19:09.088Z,101272.91
2023-05-24T19:23:13.606Z,101281.84
2023-05-24T19:27:16.884Z,101279.13
2023-05-24T19:31:20.580Z,101286.78
2023-05-24T19:35:23.707Z,101291.06
2023-05-24T19:39:28.082Z,101299.28
2023-05-24T19:43:31.219Z,101293.81
2023-05-24T19:47:34.273Z,101297.81
2023-05-24T19:51:37.681Z,101296.75
2023-05-24T19:55:42.314Z,101311.56
2023-05-24T19:59:45.809Z,101306.06
2023-05-24T20:03:49.489Z,101316.03
2023-05-24T20:07:52.841Z,101315.56
2023-05-24T20:11:57.267Z,101319.09
2023-05-24T20:16:00.728Z,101324.72
2023-05-24T20:20:04.341Z,101331.56
2023-05-24T20:24:07.451Z,101342.81
2023-05-24T20:28:25.758Z,101345.66
2023-05-24T20:32:33.075Z,101348.91
2023-05-24T20:36:37.021Z,101349.28
2023-05-24T20:40:40.326Z,101352.66
2023-05-24T20:44:47.118Z,101361.69
2023-05-24T20:48:50.843Z,101363.66
2023-05-24T20:52:54.082Z,101369.53
2023-05-24T20:56:57.217Z,101363.31
2023-05-24T21:01:01.715Z,101366.38
2023-05-24T21:05:06.051Z,101368.19
2023-05-24T21:09:09.249Z,101374.09
2023-05-24T21:13:12.382Z,101377.44
2023-05-24T21:17:16.872Z,101376.19
2023-05-24T21:21:20.229Z,101363.53
2023-05-24T21:25:23.324Z,101377.00
2023-05-24T21:29:26.364Z,101379.09
2023-05-24T21:33:30.780Z,101376.44
2023-05-24T21:37:33.829Z,101385.59
2023-05-24T21:41:37.385Z,101376.00
2023-05-24T21:45:40.624Z,101378.88
2023-05-24T21:49:45.567Z,101377.03
2023-05-24T21:53:48.840Z,101372.91
2023-05-24T21:57:52.304Z,101367.66
2023-05-24T22:01:55.939Z,101379.72
2023-05-24T22:06:27.576Z,101380.25
2023-05-24T22:10:31.946Z,101385.06
2023-05-24T22:14:35.110Z,101387.53
2023-05-24T22:18:38.143Z,101402.88
2023-05-24T22:22:48.857Z,101405.34
2023-05-24T22:26:53.186Z,101403.41
2023-05-24T22:30:57.634Z,101417.75
2023-05-24T22:35:00.610Z,101415.28
2023-05-24T22:39:03.596Z,101419.16
2023-05-24T22:43:07.921Z,101425.50
2023-05-24T22:47:14.023Z,101422.50
2023-05-24T22:51:17.033Z,101424.19
2023-05-24T22:55:20.063Z,101425.06
2023-05-24T22:59:24.563Z,101426.66
2023-05-24T23:03:27.481Z,101428.56
2023-05-24T23:07:30.544Z,101428.97
2023-05-24T23:11:33.616Z,101437.94
2023-05-24T23:15:39.082Z,101435.50
2023-05-24T23:19:43.286Z,101437.06
2023-05-24T23:23:46.350Z,101437.56
2023-05-24T23:27:49.313Z,101438.16
2023-05-24T23:31:53.866Z,101433.38
2023-05-24T23:35:56.848Z,101435.94
2023-05-24T23:40:02.447Z,101439.25
2023-05-24T23:44:05.552Z,101439.63
2023-05-24T23:48:09.912Z,101438.19
2023-05-24T23:52:12.887Z,101438.00
2023-05-24T23:56:16.078Z,101438.44
